Time;durP1;ratioP1;P1;durP2;ratioP2;P2;SDS_P1;SDS_P2;PMS_P1;PMS_P2;Temp;Humidity;BMP_temperature;BMP_pressure;BME280_temperature;BME280_humidity;BME280_pressure;Samples;Min_cycle;Max_cycle;Signal;HPM_P1;HPM_P2
2022/08/12 00:44:32;;;;;;;2.87;2.20;;;23.80;51.80;;;26.39;39.33;102069.44;5057202;28;20589;-62
2022/08/12 00:47:02;;;;;;;3.40;2.23;;;23.80;51.80;;;26.38;39.86;102070.53;5056950;28;20658;-62
2022/08/12 00:49:31;;;;;;;4.17;1.97;;;23.70;51.90;;;26.36;39.76;102064.56;5061265;28;20208;-62
2022/08/12 00:52:10;;;;;;;1.80;1.70;;;23.70;52.20;;;26.39;40.24;102071.31;5076372;28;20221;-62
2022/08/12 00:54:41;;;;;;;3.17;1.90;;;23.70;52.30;;;26.41;40.35;102067.31;5076712;28;20192;-62
2022/08/12 00:57:11;;;;;;;4.40;1.97;;;23.70;52.50;;;26.45;39.95;102078.44;5076618;28;20196;-62
2022/08/12 00:59:47;;;;;;;2.73;2.10;;;23.70;52.50;;;26.44;40.29;102077.63;5076202;28;20231;-62
2022/08/12 01:02:26;;;;;;;2.87;1.97;;;23.80;52.50;;;26.45;39.48;102078.44;5076510;28;20201;-62
2022/08/12 01:13:23;;;;;;;1.80;1.70;;;23.80;52.50;;;26.45;40.36;102073.03;5056135;28;20225;-62
2022/08/12 01:15:56;;;;;;;3.87;2.60;;;23.80;52.50;;;26.44;40.46;102071.41;5056497;28;20604;-61
2022/08/12 01:18:29;;;;;;;4.30;2.53;;;23.80;52.70;;;26.41;40.03;102070.00;5056199;28;20550;-61
2022/08/12 01:21:11;;;;;;;2.87;2.50;;;23.80;52.80;;;26.34;40.04;102066.66;5055853;28;20587;-63
2022/08/12 01:24:00;;;;;;;2.00;1.90;;;23.70;52.70;;;26.30;40.61;102073.63;5059237;28;20617;-64
2022/08/12 01:26:53;;;;;;;2.40;2.20;;;23.70;52.90;;;26.27;40.69;102074.09;5055648;28;20219;-59
2022/08/12 01:29:26;;;;;;;2.90;2.30;;;23.70;52.90;;;26.22;40.75;102078.63;5055651;28;20170;-60
2022/08/12 01:32:04;;;;;;;2.83;2.27;;;23.60;53.10;;;26.14;40.18;102072.56;5055071;28;20225;-61
2022/08/12 01:34:38;;;;;;;2.17;2.03;;;23.50;53.10;;;26.09;41.01;102080.56;5055639;28;20659;-62
2022/08/12 01:37:08;;;;;;;2.30;2.10;;;23.40;53.40;;;26.02;41.30;102073.66;5055403;28;20194;-61
2022/08/12 01:39:44;;;;;;;3.77;2.23;;;23.40;53.80;;;25.96;40.82;102075.44;5055692;28;20187;-62
2022/08/12 01:42:44;;;;;;;2.70;2.30;;;23.30;53.90;;;25.87;41.19;102071.53;5055400;28;20216;-62
2022/08/12 01:45:12;;;;;;;3.07;2.23;;;23.30;54.20;;;25.89;41.53;102073.97;5055800;28;20194;-61
2022/08/12 01:48:00;;;;;;;4.03;2.43;;;23.20;54.10;;;25.86;41.05;102079.88;5055464;28;20292;-63
2022/08/12 01:50:49;;;;;;;2.37;2.17;;;23.20;54.30;;;25.83;41.75;102074.94;5055394;28;20233;-62
2022/08/12 01:53:23;;;;;;;2.63;2.17;;;23.20;54.50;;;25.81;41.33;102063.59;5055749;28;20305;-61
2022/08/12 01:55:53;;;;;;;2.47;2.30;;;23.10;54.70;;;25.81;41.13;102058.19;5055667;28;20244;-62
2022/08/12 02:01:33;;;;;;;3.00;2.00;;;23.10;54.60;;;25.72;41.39;102056.94;5054894;28;20210;-60
2022/08/12 02:13:45;;;;;;;2.27;2.13;;;23.10;54.90;;;25.63;41.83;102058.38;5035380;28;20222;-62
2022/08/12 02:16:35;;;;;;;3.40;2.23;;;23.10;54.90;;;25.62;41.87;102068.38;5035254;28;20186;-62
2022/08/12 02:19:18;;;;;;;2.10;1.90;;;23.00;54.90;;;25.62;41.78;102062.97;5035229;28;20182;-61
2022/08/12 02:22:10;;;;;;;3.77;2.10;;;23.00;55.00;;;25.62;42.10;102056.75;5054527;28;20214;-62
2022/08/12 02:24:41;;;;;;;5.07;2.13;;;23.00;55.10;;;25.60;42.41;102059.72;5054265;28;20212;-62
2022/08/12 02:27:12;;;;;;;2.47;2.27;;;23.00;55.20;;;25.57;41.93;102060.19;5054648;28;20297;-61
2022/08/12 02:29:41;;;;;;;2.70;2.20;;;22.90;55.10;;;25.52;42.04;102060.91;5054499;28;20186;-63
2022/08/12 02:32:09;;;;;;;2.70;2.17;;;22.90;55.40;;;25.47;42.10;102059.97;5053984;28;20217;-61
2022/08/12 02:34:37;;;;;;;3.60;1.90;;;22.80;55.40;;;25.42;42.74;102057.97;5054523;28;20198;-63
2022/08/12 02:37:09;;;;;;;3.23;2.90;;;22.80;55.50;;;25.38;42.24;102056.00;5054870;28;20189;-62
2022/08/12 02:39:43;;;;;;;3.93;2.60;;;22.70;55.80;;;25.33;42.46;102056.72;5054788;28;20170;-62
2022/08/12 02:42:14;;;;;;;2.63;2.43;;;22.70;55.80;;;25.25;42.67;102051.69;5054242;28;20258;-62
2022/08/12 02:44:49;;;;;;;5.90;2.67;;;22.60;55.80;;;25.17;42.90;102059.34;5069860;28;20689;-60
2022/08/12 02:47:23;;;;;;;3.00;2.37;;;22.50;56.10;;;25.10;43.27;102054.09;5054638;28;20554;-63
2022/08/12 02:50:16;;;;;;;2.93;2.63;;;22.40;56.40;;;25.04;43.58;102060.44;5054390;28;20646;-61
2022/08/12 02:52:45;;;;;;;2.80;2.50;;;22.40;56.80;;;25.03;43.36;102058.78;5053777;28;20266;-62
2022/08/12 02:55:20;;;;;;;2.53;2.33;;;22.40;56.80;;;24.98;43.58;102061.41;5054303;28;20193;-63
2022/08/12 02:58:06;;;;;;;4.00;2.50;;;22.30;56.90;;;24.94;43.58;102054.81;5053717;28;20690;-61
2022/08/12 03:00:42;;;;;;;2.90;2.40;;;22.30;57.10;;;24.90;43.41;102059.06;5053044;28;20182;-62
2022/08/12 03:03:11;;;;;;;3.10;2.17;;;22.20;57.20;;;24.91;43.69;102059.88;5052904;28;20216;-63
2022/08/12 03:05:47;;;;;;;2.90;2.40;;;22.20;57.40;;;24.90;43.56;102056.34;5053696;28;20189;-63
2022/08/12 03:08:23;;;;;;;3.03;2.70;;;22.20;57.50;;;24.91;43.92;102060.72;5045782;28;20197;-62
2022/08/12 03:11:09;;;;;;;3.60;2.37;;;22.20;57.60;;;24.93;44.09;102053.19;5033500;28;20201;-61
2022/08/12 03:13:45;;;;;;;4.77;2.57;;;22.20;57.50;;;24.97;44.00;102054.34;5033715;28;20222;-63
2022/08/12 03:16:14;;;;;;;3.00;2.70;;;22.30;57.60;;;25.03;43.64;102048.00;5033972;28;20190;-63
2022/08/12 03:18:42;;;;;;;4.03;2.13;;;22.30;57.30;;;25.01;43.39;102047.41;5033942;28;20240;-62
2022/08/12 03:21:16;;;;;;;2.77;2.57;;;22.30;57.20;;;24.97;43.69;102040.88;5033578;28;20214;-63
2022/08/12 03:24:07;;;;;;;3.83;2.73;;;22.30;57.40;;;24.94;43.66;102038.66;5061217;28;20185;-62
2022/08/12 03:26:35;;;;;;;3.43;2.53;;;22.30;57.50;;;24.98;43.66;102049.78;5073691;28;20636;-63
2022/08/12 03:29:05;;;;;;;4.17;2.60;;;22.30;57.40;;;25.00;43.72;102043.09;5073673;28;20190;-62
2022/08/12 03:31:34;;;;;;;4.10;2.63;;;22.30;57.50;;;25.00;43.43;102035.03;5076922;28;20205;-62
2022/08/12 03:34:08;;;;;;;3.33;2.67;;;22.40;57.50;;;25.02;43.38;102035.59;5076360;28;20181;-63
2022/08/12 03:36:39;;;;;;;3.20;2.37;;;22.40;57.40;;;25.02;43.72;102035.59;5036770;28;20651;-62
2022/08/12 03:39:21;;;;;;;6.47;2.40;;;22.40;57.40;;;25.04;43.55;102033.47;5034160;28;20175;-62
2022/08/12 03:42:26;;;;;;;2.70;2.50;;;22.40;57.50;;;25.00;43.52;102043.09;5033752;28;20284;-62
2022/08/12 04:02:14;;;;;;;3.93;2.70;;;22.20;57.90;;;24.79;44.42;102041.03;5052638;28;20216;-62
2022/08/12 04:04:46;;;;;;;3.73;2.60;;;22.20;58.10;;;24.77;44.17;102048.53;5053062;28;20257;-62
2022/08/12 04:07:15;;;;;;;4.57;2.67;;;22.10;58.00;;;24.74;44.30;102044.41;5052999;28;20190;-62
2022/08/12 04:09:45;;;;;;;2.67;2.47;;;22.10;58.20;;;24.71;44.48;102039.50;5052905;28;20565;-62
2022/08/12 04:15:01;;;;;;;3.17;2.33;;;22.00;58.50;;;24.71;44.46;102038.66;5056942;28;20182;-62
2022/08/12 04:17:30;;;;;;;4.57;2.90;;;22.00;58.50;;;24.74;44.04;102038.19;5072590;28;20232;-62
2022/08/12 04:19:59;;;;;;;4.17;3.30;;;22.00;58.30;;;24.68;44.49;102042.66;5056388;28;20649;-62
2022/08/12 04:22:29;;;;;;;3.27;2.53;;;22.00;58.30;;;24.61;44.62;102044.66;5057488;28;20205;-62
2022/08/12 04:25:01;;;;;;;3.27;3.00;;;21.90;58.80;;;24.59;44.82;102045.94;5076771;28;20189;-62
2022/08/12 04:27:30;;;;;;;2.57;2.37;;;21.90;58.90;;;24.57;44.69;102043.50;5076833;28;20197;-64
2022/08/12 04:29:59;;;;;;;5.50;2.97;;;21.90;59.40;;;24.53;44.63;102042.28;5076901;28;20201;-62
2022/08/12 04:32:48;;;;;;;4.97;3.50;;;21.80;59.00;;;24.52;45.06;102039.84;5076403;28;20223;-63
2022/08/12 04:35:18;;;;;;;3.80;3.37;;;21.80;59.20;;;24.51;45.05;102040.91;5065456;28;20202;-63
2022/08/12 04:37:52;;;;;;;5.07;3.70;;;21.80;59.20;;;24.48;45.33;102038.69;5056617;28;20190;-63
2022/08/12 04:40:30;;;;;;;3.80;3.40;;;21.80;59.30;;;24.48;44.97;102041.38;5056580;28;20272;-63
2022/08/12 04:43:02;;;;;;;4.83;3.30;;;21.80;59.50;;;24.48;45.35;102033.31;5055303;28;20220;-63
2022/08/12 04:45:31;;;;;;;6.33;3.10;;;21.70;59.50;;;24.49;45.35;102030.38;5056512;28;20541;-62
2022/08/12 04:48:00;;;;;;;3.27;2.87;;;21.80;59.50;;;24.52;45.46;102039.84;5056514;28;20193;-62
2022/08/12 04:50:31;;;;;;;3.43;2.70;;;21.80;59.40;;;24.53;45.15;102046.88;5056040;28;20190;-62
2022/08/12 04:53:05;;;;;;;4.70;4.20;;;21.80;59.40;;;24.56;45.02;102043.69;5055959;28;20213;-64
2022/08/12 04:55:37;;;;;;;8.57;2.97;;;21.80;59.40;;;24.58;45.31;102045.09;5056213;28;20228;-63
2022/08/12 04:58:05;;;;;;;4.10;3.40;;;21.80;59.40;;;24.61;44.89;102049.22;5056402;28;20204;-63
2022/08/12 05:00:33;;;;;;;6.03;2.97;;;21.80;59.30;;;24.65;44.82;102040.41;5055352;28;20224;-62
2022/08/12 05:03:01;;;;;;;3.67;2.77;;;21.90;59.40;;;24.69;45.34;102046.16;5056365;28;20565;-63
2022/08/12 05:05:31;;;;;;;3.37;3.07;;;21.90;59.20;;;24.71;44.74;102046.75;5055542;28;20247;-66
2022/08/12 05:08:05;;;;;;;3.53;2.97;;;22.00;59.30;;;24.78;44.87;102042.09;5055860;28;20190;-63
2022/08/12 05:10:33;;;;;;;3.07;2.77;;;22.00;59.10;;;24.79;44.56;102036.44;5055918;28;20198;-63
2022/08/12 05:13:07;;;;;;;4.40;2.40;;;22.00;59.00;;;24.80;44.44;102038.09;5056016;28;20222;-63
2022/08/12 05:15:38;;;;;;;5.17;2.97;;;22.00;59.00;;;24.82;44.47;102033.28;5070774;28;20524;-63
2022/08/12 05:18:26;;;;;;;3.83;2.83;;;22.10;59.00;;;24.83;44.75;102037.63;5055913;28;20194;-63
2022/08/12 05:20:58;;;;;;;3.60;3.10;;;22.10;58.90;;;24.86;44.34;102034.44;5055580;28;20186;-62
2022/08/12 05:23:26;;;;;;;3.40;3.00;;;22.20;59.10;;;24.91;44.63;102033.75;5055624;28;20698;-62
2022/08/12 05:25:55;;;;;;;5.63;4.40;;;22.20;59.00;;;24.96;44.07;102036.53;5055359;28;20190;-62
2022/08/12 05:28:25;;;;;;;3.47;2.97;;;22.20;58.80;;;24.98;44.17;102037.16;5055092;28;20186;-61
2022/08/12 05:30:55;;;;;;;3.30;3.00;;;22.20;58.70;;;24.98;44.13;102034.44;5070431;28;20683;-62
2022/08/12 05:33:30;;;;;;;3.53;3.00;;;22.30;58.60;;;24.99;44.48;102036.06;5055658;28;20217;-61
2022/08/12 05:35:59;;;;;;;4.03;3.43;;;22.30;58.50;;;25.00;43.80;102037.72;5055213;28;20620;-63
2022/08/12 05:41:19;;;;;;;7.57;6.87;;;22.30;58.50;;;25.00;44.19;102036.91;5054878;28;20190;-64
2022/08/12 05:43:49;;;;;;;6.80;5.13;;;22.30;58.50;;;25.05;43.91;102029.75;5054701;28;20256;-62
2022/08/12 05:46:18;;;;;;;4.93;3.30;;;22.30;58.50;;;25.09;44.04;102035.47;5055275;28;20194;-62
2022/08/12 05:48:46;;;;;;;4.23;3.20;;;22.30;58.40;;;25.14;43.78;102033.69;5055132;28;20194;-62
2022/08/12 05:51:15;;;;;;;3.80;2.87;;;22.40;58.40;;;25.17;43.69;102035.91;5054849;28;20196;-63
2022/08/12 05:53:43;;;;;;;3.50;3.20;;;22.40;58.30;;;25.23;43.51;102034.94;5054682;28;20232;-63
2022/08/12 05:56:24;;;;;;;4.37;3.23;;;22.40;58.20;;;25.26;44.06;102034.47;5055147;28;20201;-62
2022/08/12 05:58:53;;;;;;;5.33;2.97;;;22.50;58.10;;;25.36;43.71;102042.78;5055216;28;20273;-64
2022/08/12 06:01:23;;;;;;;3.17;2.90;;;22.60;58.60;;;25.41;43.54;102040.16;5054496;28;20190;-63
2022/08/12 06:04:13;;;;;;;4.43;3.30;;;22.60;57.80;;;25.46;43.12;102042.97;5054990;28;20183;-62
2022/08/12 06:06:42;;;;;;;3.43;3.13;;;22.70;57.60;;;25.50;42.96;102038.75;5050261;28;20249;-62
2022/08/12 06:09:10;;;;;;;4.07;3.67;;;22.80;57.40;;;25.58;42.78;102039.44;5035224;28;20198;-62
2022/08/12 06:11:40;;;;;;;4.57;3.57;;;22.80;57.20;;;25.63;42.31;102043.00;5034942;28;20230;-62
2022/08/12 06:14:30;;;;;;;4.60;2.87;;;22.90;57.20;;;25.68;42.86;102034.19;5054859;28;20205;-62
2022/08/12 06:16:58;;;;;;;3.27;2.97;;;22.90;56.90;;;25.73;42.83;102042.38;5069385;28;20194;-64
2022/08/12 06:19:28;;;;;;;4.07;2.80;;;22.90;56.90;;;25.77;42.67;102040.84;5055099;28;20269;-63
2022/08/12 06:22:17;;;;;;;3.63;2.60;;;22.90;56.70;;;25.81;42.29;102042.81;5054837;28;20222;-64
2022/08/12 06:24:44;;;;;;;4.67;2.40;;;23.00;56.70;;;25.86;42.07;102047.50;5054584;28;20527;-65
2022/08/12 06:27:16;;;;;;;2.90;2.53;;;23.00;56.40;;;25.91;41.78;102045.66;5054638;28;20287;-64
2022/08/12 06:29:44;;;;;;;3.90;3.57;;;23.10;56.40;;;26.00;41.98;102048.81;5054930;28;20208;-63
2022/08/12 06:32:31;;;;;;;4.70;3.63;;;23.20;56.20;;;26.05;41.99;102051.59;5054808;28;20217;-63
2022/08/12 06:35:00;;;;;;;3.97;2.70;;;23.20;56.00;;;26.11;41.13;102050.63;5054632;28;20186;-62
2022/08/12 06:37:54;;;;;;;2.80;2.60;;;23.30;55.70;;;26.20;41.34;102054.56;5053184;28;20570;-63
2022/08/12 06:43:10;;;;;;;3.03;2.40;;;23.40;55.60;;;26.38;40.97;102040.81;5054343;28;20206;-62
2022/08/12 06:45:43;;;;;;;4.67;2.70;;;23.50;55.40;;;26.46;40.56;102053.88;5053867;28;20182;-59
2022/08/12 06:48:13;;;;;;;3.47;3.07;;;23.60;55.30;;;26.52;40.88;102047.50;5054017;28;20185;-62
2022/08/12 06:50:41;;;;;;;4.17;3.30;;;23.70;54.90;;;26.57;40.11;102041.34;5053760;28;20676;-61
2022/08/12 06:53:10;;;;;;;3.10;2.80;;;23.70;54.80;;;26.63;40.29;102053.84;5054987;28;20292;-63
2022/08/12 06:55:41;;;;;;;4.93;3.43;;;23.80;54.60;;;26.70;40.52;102049.91;5054662;28;20186;-64
2022/08/12 06:58:25;;;;;;;5.30;3.97;;;23.80;54.40;;;26.78;39.81;102054.94;5054185;28;20200;-63
2022/08/12 07:00:54;;;;;;;3.23;2.87;;;23.90;54.20;;;26.83;39.78;102041.50;5053343;28;20186;-61
2022/08/12 07:03:29;;;;;;;4.50;3.93;;;24.00;53.90;;;26.90;39.90;102037.78;5053919;28;20236;-63
2022/08/12 07:06:01;;;;;;;6.07;3.50;;;24.00;53.80;;;27.01;39.98;102044.94;5053677;28;20247;-62
2022/08/12 07:08:33;;;;;;;4.83;3.30;;;24.10;53.70;;;27.09;39.05;102047.22;5054934;28;20217;-63
2022/08/12 07:11:04;;;;;;;3.37;3.07;;;24.20;53.20;;;27.14;38.35;102052.69;5053686;28;20332;-62
2022/08/12 07:13:37;;;;;;;4.47;2.80;;;24.30;52.40;;;27.22;38.91;102049.53;5053904;28;20216;-60
2022/08/12 07:16:50;;;;;;;4.77;2.90;;;24.40;52.50;;;27.32;38.72;102055.03;5053918;28;20190;-60
2022/08/12 07:19:11;;;;;;;4.20;2.50;;;24.50;52.20;;;27.39;38.61;102050.28;5053704;28;20189;-61
2022/08/12 07:21:43;;;;;;;4.87;3.10;;;24.60;52.00;;;27.46;38.30;102057.13;5053182;28;20217;-62
2022/08/12 07:24:30;;;;;;;3.20;2.90;;;24.70;51.60;;;27.50;37.88;102058.25;5053623;28;20189;-62
2022/08/12 07:26:58;;;;;;;4.70;3.10;;;24.70;51.60;;;27.60;37.77;102064.88;5053924;28;20564;-62
2022/08/12 07:29:27;;;;;;;5.53;2.87;;;24.80;51.60;;;27.66;37.53;102061.94;5054222;28;20200;-63
2022/08/12 07:32:14;;;;;;;4.53;2.97;;;24.90;51.40;;;27.73;38.07;102064.44;5053283;28;20582;-64
2022/08/12 07:34:42;;;;;;;7.10;3.33;;;24.90;51.20;;;27.82;37.99;102061.03;5068847;28;20217;-63
2022/08/12 07:37:09;;;;;;;5.53;3.67;;;25.00;51.40;;;27.93;37.53;102053.81;5053945;28;20278;-63
2022/08/12 07:39:38;;;;;;;3.97;2.70;;;25.10;51.20;;;28.03;37.49;102053.91;5053554;28;20205;-64
2022/08/12 07:42:26;;;;;;;16.20;14.37;;;25.20;51.20;;;28.14;37.68;102058.34;5053670;28;20328;-63
2022/08/12 07:44:54;;;;;;;5.07;3.77;;;25.30;51.20;;;28.29;37.47;102054.94;5054696;28;20182;-63
2022/08/12 07:47:22;;;;;;;3.87;2.83;;;25.40;51.10;;;28.77;37.03;102062.88;5061075;28;20201;-63
2022/08/12 07:49:50;;;;;;;3.37;2.67;;;25.50;51.30;;;29.67;35.79;102056.97;5063089;28;20713;-63
2022/08/12 07:52:33;;;;;;;3.80;3.10;;;25.80;51.50;;;30.89;34.81;102060.47;5059948;28;20264;-63
2022/08/12 07:55:02;;;;;;;5.50;3.50;;;26.30;51.00;;;32.10;32.51;102060.56;5053870;28;20285;-63
2022/08/12 07:57:33;;;;;;;4.20;3.07;;;27.00;49.80;;;33.26;30.57;102065.59;5053212;28;20252;-63
2022/08/12 08:00:05;;;;;;;3.63;2.80;;;27.70;48.10;;;34.45;29.35;102052.22;5053102;28;20186;-64
2022/08/12 08:02:34;;;;;;;3.73;3.33;;;28.60;47.00;;;35.49;27.54;102049.53;5068554;28;20668;-62
2022/08/12 08:05:03;;;;;;;4.23;3.00;;;29.40;44.00;;;36.52;26.31;102050.22;5052958;28;20277;-61
2022/08/12 08:07:31;;;;;;;7.23;4.53;;;30.10;43.00;;;37.48;24.94;102061.97;5053415;28;20190;-64
2022/08/12 08:10:05;;;;;;;3.33;3.13;;;30.90;41.50;;;38.43;24.71;102057.94;5052908;28;20186;-62
2022/08/12 08:15:20;;;;;;;4.43;3.42;;;32.40;36.80;;;40.13;21.45;102057.03;5052835;28;20651;-62
2022/08/12 08:18:10;;;;;;;3.40;3.10;;;33.20;35.30;;;41.01;20.57;102065.50;5052788;28;20194;-63
2022/08/12 08:20:44;;;;;;;3.72;3.13;;;33.90;34.50;;;41.80;20.07;102059.16;5052880;28;20205;-63
2022/08/12 08:23:15;;;;;;;3.70;3.22;;;34.50;32.90;;;42.57;19.41;102064.34;5052771;28;20229;-63
2022/08/12 08:25:44;;;;;;;38.65;34.90;;;35.10;31.80;;;43.25;19.12;102061.94;5053684;28;20193;-63
2022/08/12 08:28:17;;;;;;;7.60;7.00;;;35.70;31.00;;;43.78;18.22;102058.31;5053305;28;20190;-64
2022/08/12 08:30:46;;;;;;;4.38;3.97;;;36.30;29.80;;;44.18;17.54;102055.91;5053330;28;20194;-63
2022/08/12 08:33:17;;;;;;;4.38;3.50;;;36.80;28.70;;;44.47;17.16;102062.75;5069056;28;20221;-62
2022/08/12 08:36:05;;;;;;;4.55;3.88;;;37.30;27.90;;;44.98;16.82;102050.00;5053169;28;20248;-63
2022/08/12 08:38:44;;;;;;;4.22;3.75;;;37.70;27.90;;;45.41;16.68;102053.38;5053039;28;20186;-61
2022/08/12 08:44:36;;;;;;;3.78;3.40;;;38.60;26.30;;;46.11;14.95;102056.13;5068071;28;20255;-64
2022/08/12 08:47:04;;;;;;;4.93;3.83;;;39.00;25.00;;;46.36;15.16;102056.34;5052868;28;20182;-64
2022/08/12 08:49:33;;;;;;;5.65;4.15;;;39.30;25.30;;;46.85;15.13;102051.13;5052562;28;20200;-63
2022/08/12 08:52:05;;;;;;;3.60;3.30;;;39.50;25.40;;;47.27;14.46;102050.53;5052364;28;20213;-63
2022/08/12 08:54:33;;;;;;;3.35;3.05;;;39.80;25.00;;;47.42;14.46;102058.59;5052687;28;20213;-63
2022/08/12 08:57:04;;;;;;;3.88;3.50;;;40.10;24.30;;;47.59;14.25;102057.84;5052284;28;20202;-62
2022/08/12 08:59:32;;;;;;;5.18;2.97;;;40.40;24.20;;;47.79;14.12;102057.47;5052124;28;20659;-63
2022/08/12 09:02:01;;;;;;;4.80;3.05;;;40.60;23.90;;;47.87;13.70;102045.13;5055499;28;20339;-63
2022/08/12 09:04:28;;;;;;;3.65;2.88;;;40.80;22.90;;;47.97;13.71;102044.34;5056105;28;20259;-64
2022/08/12 09:07:17;;;;;;;3.40;3.10;;;41.00;23.00;;;48.29;13.80;102045.13;5056231;28;20201;-61
2022/08/12 09:10:06;;;;;;;8.50;3.90;;;41.30;23.20;;;48.64;13.23;102049.91;5035840;28;20183;-63
2022/08/12 09:15:34;;;;;;;3.30;3.08;;;41.60;22.10;;;49.01;12.95;102049.41;5041040;28;20231;-63
2022/08/12 09:18:04;;;;;;;3.95;3.25;;;41.70;21.90;;;49.22;12.70;102046.53;5076046;28;20196;-63
2022/08/12 09:20:38;;;;;;;7.30;6.68;;;41.90;21.70;;;49.54;12.37;102046.41;5075670;28;20583;-63
2022/08/12 09:23:09;;;;;;;3.50;3.15;;;42.10;21.50;;;49.73;11.73;102052.28;5070197;28;20209;-64
2022/08/12 09:25:59;;;;;;;3.75;3.38;;;42.20;20.50;;;49.51;12.07;102053.59;5055912;28;20639;-62
2022/08/12 09:28:33;;;;;;;4.05;3.75;;;42.40;20.00;;;49.48;12.00;102051.59;5055586;28;20254;-64
2022/08/12 09:31:04;;;;;;;6.97;5.82;;;42.50;20.10;;;49.65;11.90;102045.09;5054966;28;20214;-64
2022/08/12 09:33:52;;;;;;;7.57;7.00;;;42.60;20.20;;;49.95;11.72;102039.69;5055044;28;20213;-63
2022/08/12 09:36:41;;;;;;;3.75;3.40;;;42.80;20.00;;;50.06;10.67;102043.22;5055038;28;20193;-63
2022/08/12 09:39:28;;;;;;;3.33;3.05;;;42.90;19.50;;;50.11;11.36;102036.34;5055598;28;20194;-63
2022/08/12 09:45:21;;;;;;;5.35;4.90;;;43.10;19.20;;;50.60;11.25;102029.50;5046581;28;20708;-63
2022/08/12 09:48:15;;;;;;;4.75;3.58;;;43.10;19.20;;;50.83;11.06;102026.78;5054724;28;20228;-63
2022/08/12 09:50:50;;;;;;;3.63;3.42;;;43.20;19.20;;;50.97;10.83;102026.66;5054796;28;20241;-64
2022/08/12 09:53:23;;;;;;;11.30;3.40;;;43.30;19.10;;;51.01;10.76;102024.59;5055089;28;20226;-64
2022/08/12 09:56:06;;;;;;;4.03;3.47;;;43.40;19.20;;;51.45;10.81;102014.38;5055014;28;20193;-63
2022/08/12 09:58:53;;;;;;;4.10;3.58;;;43.60;19.60;;;51.71;10.29;102022.78;5054781;28;20197;-62
2022/08/12 10:01:29;;;;;;;5.25;4.75;;;43.80;18.80;;;51.73;10.50;102011.13;5054075;28;20236;-63
2022/08/12 10:04:17;;;;;;;3.53;3.22;;;43.90;18.90;;;51.95;9.90;102021.59;5055352;28;20198;-63
2022/08/12 10:06:47;;;;;;;3.35;3.10;;;44.10;18.90;;;51.93;10.04;102009.19;5075185;28;20216;-64
2022/08/12 10:09:22;;;;;;;3.70;3.33;;;44.20;18.60;;;52.18;9.91;102009.56;5074984;28;20177;-61
2022/08/12 10:15:00;;;;;;;5.20;3.60;;;44.50;18.60;;;52.94;9.52;101994.41;5054798;28;20243;-62
2022/08/12 10:17:29;;;;;;;3.10;2.90;;;44.60;18.50;;;53.17;9.16;101990.66;5054729;28;20259;-63
2022/08/12 10:19:57;;;;;;;4.72;3.67;;;44.80;18.00;;;53.06;8.95;101990.09;5054365;28;20190;-62
2022/08/12 10:22:26;;;;;;;4.60;2.65;;;44.90;17.60;;;52.88;9.73;101989.69;5054175;28;20210;-63
2022/08/12 10:31:29;;;;;;;3.97;2.85;;;45.10;16.50;;;52.89;8.32;101974.41;5074052;28;20266;-63
2022/08/12 10:34:21;;;;;;;3.00;2.70;;;45.20;16.00;;;53.03;8.25;101974.06;5074135;28;20241;-63
2022/08/12 10:36:57;;;;;;;2.95;2.75;;;45.40;16.00;;;52.84;7.90;101967.22;5073994;28;20272;-63
2022/08/12 10:39:34;;;;;;;4.65;2.83;;;45.40;15.20;;;52.40;8.58;101970.56;5074403;28;20174;-63
2022/08/12 10:45:16;;;;;;;3.85;2.83;;;45.20;14.70;;;50.04;8.66;101975.53;5089696;28;20204;-65
2022/08/12 10:47:48;;;;;;;3.80;2.80;;;44.70;15.00;;;49.12;9.99;101958.56;5073820;28;20181;-64
2022/08/12 10:50:37;;;;;;;2.75;2.40;;;44.20;15.80;;;48.12;10.42;101962.09;5073747;28;20197;-63
2022/08/12 10:53:26;;;;;;;6.88;4.72;;;43.70;16.60;;;46.89;11.61;101948.69;5074258;28;20240;-62
2022/08/12 10:56:14;;;;;;;3.42;2.97;;;43.20;16.70;;;45.67;11.29;101951.03;5074418;28;20280;-64
2022/08/12 10:58:42;;;;;;;3.17;2.88;;;42.50;16.60;;;44.72;12.66;101944.34;5073973;28;20194;-62
2022/08/12 11:01:14;;;;;;;3.10;2.80;;;41.80;17.10;;;43.76;12.38;101944.06;5073478;28;20251;-62
2022/08/12 11:04:04;;;;;;;2.40;2.20;;;41.20;16.80;;;42.59;12.31;101942.84;5073607;28;20182;-61
2022/08/12 11:06:53;;;;;;;2.78;2.50;;;40.30;16.50;;;42.10;13.72;101937.75;5073627;28;20185;-64
2022/08/12 11:09:41;;;;;;;2.85;2.63;;;39.80;17.70;;;42.16;13.85;101939.06;5069811;28;20193;-63
2022/08/12 11:12:28;;;;;;;5.43;3.95;;;39.30;19.00;;;42.25;14.10;101936.91;5072680;28;20267;-64
2022/08/12 11:15:19;;;;;;;2.92;2.72;;;39.00;19.70;;;42.25;14.96;101934.13;5073119;28;20213;-63
2022/08/12 11:18:07;;;;;;;4.55;3.67;;;38.80;20.00;;;42.18;14.42;101928.44;5073389;28;20200;-63
2022/08/12 11:20:43;;;;;;;5.15;3.42;;;38.60;20.10;;;42.17;14.67;101928.81;5060098;28;20219;-63
2022/08/12 11:23:12;;;;;;;3.03;2.83;;;38.40;20.30;;;42.47;13.75;101936.25;5059812;28;20216;-63
2022/08/12 11:26:00;;;;;;;2.58;2.35;;;38.30;20.20;;;42.74;13.41;101920.63;5073429;28;20266;-62
2022/08/12 11:28:33;;;;;;;3.08;2.50;;;38.30;19.70;;;42.66;13.30;101916.09;5073445;28;20189;-63
2022/08/12 11:31:06;;;;;;;3.30;3.00;;;38.20;19.50;;;42.24;13.52;101918.69;5072729;28;20306;-62
2022/08/12 11:33:39;;;;;;;2.85;2.65;;;38.10;19.50;;;41.77;14.05;101915.94;5073102;28;20642;-64
2022/08/12 11:36:27;;;;;;;4.20;2.85;;;38.10;19.90;;;41.24;14.38;101910.94;5072996;28;20215;-64
2022/08/12 11:38:56;;;;;;;4.40;4.05;;;37.90;19.60;;;40.76;15.08;101906.38;5068509;28;20268;-63
2022/08/12 11:41:24;;;;;;;2.83;2.63;;;37.80;19.70;;;40.39;14.68;101904.84;5066985;28;20226;-63
2022/08/12 11:43:59;;;;;;;4.55;2.53;;;37.60;20.20;;;40.04;15.39;101906.47;5068150;28;20268;-65
2022/08/12 11:46:46;;;;;;;3.03;2.60;;;37.40;20.20;;;39.60;15.78;101899.84;5052994;28;20208;-63
2022/08/12 11:49:20;;;;;;;5.75;3.08;;;37.10;20.10;;;39.26;15.86;101898.25;5052430;28;20206;-62
2022/08/12 11:52:03;;;;;;;2.38;2.17;;;36.90;20.10;;;38.97;15.95;101895.56;5052543;28;20233;-63
2022/08/12 11:54:52;;;;;;;2.67;2.53;;;36.70;20.40;;;38.76;16.21;101878.25;5052932;28;20336;-63
2022/08/12 11:57:21;;;;;;;3.05;2.40;;;36.50;20.80;;;38.56;16.35;101883.41;5068454;28;20267;-62
2022/08/12 12:00:10;;;;;;;3.67;3.38;;;36.30;20.30;;;38.43;16.15;101880.91;5052898;28;20190;-63
2022/08/12 12:02:58;;;;;;;3.00;2.80;;;36.10;20.70;;;38.30;16.70;101874.53;5053395;28;20237;-63
2022/08/12 12:05:25;;;;;;;3.03;2.50;;;36.00;20.70;;;38.22;16.33;101882.81;5053052;28;20312;-64
2022/08/12 12:08:08;;;;;;;2.42;2.22;;;35.90;20.80;;;38.10;16.54;101880.78;5052961;28;20273;-63
2022/08/12 12:10:57;;;;;;;2.78;2.47;;;35.80;20.90;;;38.11;16.94;101876.88;5052948;28;20740;-63
2022/08/12 12:13:27;;;;;;;3.72;2.70;;;35.80;21.50;;;38.20;17.06;101880.41;5053120;28;20248;-62
2022/08/12 12:16:15;;;;;;;2.58;2.40;;;35.80;21.40;;;38.22;17.34;101872.63;5052926;28;20229;-64
2022/08/12 12:18:42;;;;;;;2.95;2.38;;;35.80;21.70;;;38.24;16.93;101873.09;5053415;28;20198;-63
2022/08/12 12:21:13;;;;;;;3.42;2.17;;;35.80;21.40;;;38.27;16.13;101869.69;5052602;28;20204;-63
2022/08/12 12:23:41;;;;;;;2.50;2.35;;;35.80;21.00;;;38.28;16.29;101873.25;5063269;28;20526;-64
2022/08/12 12:26:14;;;;;;;3.38;2.10;;;35.80;20.70;;;38.28;16.62;101871.31;5072453;28;20548;-64
2022/08/12 12:29:02;;;;;;;2.58;2.38;;;35.80;21.40;;;38.33;16.61;101862.84;5072807;28;20193;-63
2022/08/12 12:31:32;;;;;;;2.85;2.72;;;35.80;21.70;;;38.40;16.46;101868.63;5072020;28;20634;-62
2022/08/12 12:34:19;;;;;;;3.58;2.10;;;35.80;21.20;;;38.35;16.38;101855.06;5074197;28;20189;-63
2022/08/12 12:36:57;;;;;;;2.83;2.38;;;35.80;21.30;;;38.29;16.48;101850.91;5076764;28;20193;-63
2022/08/12 12:39:27;;;;;;;3.85;2.70;;;35.70;21.40;;;38.26;16.78;101850.72;5076352;28;20265;-62
2022/08/12 12:41:58;;;;;;;3.78;2.03;;;35.70;21.20;;;38.14;15.99;101847.88;5076184;28;20272;-64